sensor_id;sensor_type;location;lat;lon;timestamp;pressure;altitude;pressure_sealevel;temperature;humidity
74637;BME280;63141;54.616;39.754;2023-06-24T00:01:37;99530.97;;;23.06;56.61
74637;BME280;63141;54.616;39.754;2023-06-24T00:04:45;99525.75;;;23.05;56.25
74637;BME280;63141;54.616;39.754;2023-06-24T00:08:01;99525.75;;;23.05;56.31
74637;BME280;63141;54.616;39.754;2023-06-24T00:11:03;99521.34;;;23.04;56.21
74637;BME280;63141;54.616;39.754;2023-06-24T00:14:05;99523.09;;;23.05;56.16
74637;BME280;63141;54.616;39.754;2023-06-24T00:17:08;99523.09;;;23.05;56.15
74637;BME280;63141;54.616;39.754;2023-06-24T00:20:09;99527.53;;;23.04;56.25
74637;BME280;63141;54.616;39.754;2023-06-24T00:23:17;99522.22;;;23.04;56.07
74637;BME280;63141;54.616;39.754;2023-06-24T00:26:25;99524.00;;;23.04;56.29
74637;BME280;63141;54.616;39.754;2023-06-24T00:29:26;99520.50;;;23.03;56.32
74637;BME280;63141;54.616;39.754;2023-06-24T00:32:31;99520.50;;;23.03;56.18
74637;BME280;63141;54.616;39.754;2023-06-24T00:35:33;99517.84;;;23.03;56.39
74637;BME280;63141;54.616;39.754;2023-06-24T00:38:34;99518.81;;;23.02;56.23
74637;BME280;63141;54.616;39.754;2023-06-24T00:41:36;99505.59;;;23.00;56.32
74637;BME280;63141;54.616;39.754;2023-06-24T00:44:37;99502.88;;;23.02;56.18
74637;BME280;63141;54.616;39.754;2023-06-24T00:47:39;99496.69;;;23.02;56.16
74637;BME280;63141;54.616;39.754;2023-06-24T00:50:41;99499.34;;;23.02;56.19
74637;BME280;63141;54.616;39.754;2023-06-24T00:53:47;99502.00;;;23.02;56.05
74637;BME280;63141;54.616;39.754;2023-06-24T00:56:49;99503.72;;;23.03;56.26
74637;BME280;63141;54.616;39.754;2023-06-24T00:59:50;99496.69;;;23.02;56.04
74637;BME280;63141;54.616;39.754;2023-06-24T01:02:54;99493.09;;;23.03;56.36
74637;BME280;63141;54.616;39.754;2023-06-24T01:06:01;99495.81;;;23.01;56.17
74637;BME280;63141;54.616;39.754;2023-06-24T01:09:03;99498.56;;;22.99;56.14
74637;BME280;63141;54.616;39.754;2023-06-24T01:12:06;99494.97;;;23.00;56.24
74637;BME280;63141;54.616;39.754;2023-06-24T01:15:11;99500.28;;;23.00;56.32
74637;BME280;63141;54.616;39.754;2023-06-24T01:21:57;99495.81;;;23.01;56.20
74637;BME280;63141;54.616;39.754;2023-06-24T01:32:33;99503.00;;;22.99;56.13
74637;BME280;63141;54.616;39.754;2023-06-24T01:35:40;99496.81;;;22.98;56.34
74637;BME280;63141;54.616;39.754;2023-06-24T01:39:03;99495.91;;;22.99;56.41
74637;BME280;63141;54.616;39.754;2023-06-24T01:42:08;99505.59;;;23.00;56.35
74637;BME280;63141;54.616;39.754;2023-06-24T01:45:19;99501.22;;;22.99;56.33
74637;BME280;63141;54.616;39.754;2023-06-24T01:48:25;99493.25;;;22.99;56.14
74637;BME280;63141;54.616;39.754;2023-06-24T01:51:30;99500.38;;;22.99;56.24
74637;BME280;63141;54.616;39.754;2023-06-24T01:54:33;99495.09;;;22.97;56.47
74637;BME280;63141;54.616;39.754;2023-06-24T01:57:37;99496.91;;;22.97;56.61
74637;BME280;63141;54.616;39.754;2023-06-24T02:00:43;99496.81;;;22.98;56.12
74637;BME280;63141;54.616;39.754;2023-06-24T02:03:45;99497.75;;;22.97;56.51
74637;BME280;63141;54.616;39.754;2023-06-24T02:06:50;99500.41;;;22.97;56.54
74637;BME280;63141;54.616;39.754;2023-06-24T02:09:55;99500.41;;;22.97;56.28
74637;BME280;63141;54.616;39.754;2023-06-24T02:12:58;99505.72;;;22.97;56.50
74637;BME280;63141;54.616;39.754;2023-06-24T02:16:00;99512.75;;;22.98;56.41
74637;BME280;63141;54.616;39.754;2023-06-24T02:19:04;99511.03;;;22.97;56.44
74637;BME280;63141;54.616;39.754;2023-06-24T02:22:07;99510.16;;;22.97;56.50
74637;BME280;63141;54.616;39.754;2023-06-24T02:25:11;99510.16;;;22.97;56.26
74637;BME280;63141;54.616;39.754;2023-06-24T02:28:13;99507.63;;;22.95;56.31
74637;BME280;63141;54.616;39.754;2023-06-24T02:31:15;99512.94;;;22.95;56.35
74637;BME280;63141;54.616;39.754;2023-06-24T02:34:17;99512.94;;;22.95;56.34
74637;BME280;63141;54.616;39.754;2023-06-24T02:37:18;99500.56;;;22.94;56.46
74637;BME280;63141;54.616;39.754;2023-06-24T02:40:20;99509.41;;;22.95;56.35
74637;BME280;63141;54.616;39.754;2023-06-24T02:43:21;99491.69;;;22.95;56.29
74637;BME280;63141;54.616;39.754;2023-06-24T02:46:24;99497.75;;;22.97;56.16
74637;BME280;63141;54.616;39.754;2023-06-24T02:49:27;99501.34;;;22.96;56.16
74637;BME280;63141;54.616;39.754;2023-06-24T02:52:29;99501.34;;;22.96;56.27
74637;BME280;63141;54.616;39.754;2023-06-24T02:55:32;99497.00;;;22.95;56.44
74637;BME280;63141;54.616;39.754;2023-06-24T02:58:37;99493.38;;;22.96;56.30
74637;BME280;63141;54.616;39.754;2023-06-24T03:01:45;99490.72;;;22.96;56.44
74637;BME280;63141;54.616;39.754;2023-06-24T03:04:56;99493.38;;;22.96;56.56
74637;BME280;63141;54.616;39.754;2023-06-24T03:07:58;99484.56;;;22.96;56.59
74637;BME280;63141;54.616;39.754;2023-06-24T03:11:00;99483.63;;;22.97;56.62
74637;BME280;63141;54.616;39.754;2023-06-24T03:14:04;99488.06;;;22.96;56.86
74637;BME280;63141;54.616;39.754;2023-06-24T03:17:11;99486.28;;;22.97;56.78
74637;BME280;63141;54.616;39.754;2023-06-24T03:20:14;99484.47;;;22.97;57.18
74637;BME280;63141;54.616;39.754;2023-06-24T03:23:15;99489.78;;;22.97;57.16
74637;BME280;63141;54.616;39.754;2023-06-24T03:26:18;99483.63;;;22.97;57.17
74637;BME280;63141;54.616;39.754;2023-06-24T03:29:20;99488.06;;;22.96;57.13
74637;BME280;63141;54.616;39.754;2023-06-24T03:32:50;99484.47;;;22.97;57.03
74637;BME280;63141;54.616;39.754;2023-06-24T03:35:53;99478.31;;;22.97;57.53
74637;BME280;63141;54.616;39.754;2023-06-24T03:39:00;99483.63;;;22.97;57.35
74637;BME280;63141;54.616;39.754;2023-06-24T03:42:01;99484.47;;;22.97;57.38
74637;BME280;63141;54.616;39.754;2023-06-24T03:45:03;99479.16;;;22.97;57.60
74637;BME280;63141;54.616;39.754;2023-06-24T03:48:05;99482.75;;;22.96;57.74
74637;BME280;63141;54.616;39.754;2023-06-24T03:51:06;99486.28;;;22.97;57.93
74637;BME280;63141;54.616;39.754;2023-06-24T03:54:08;99481.91;;;22.96;57.83
74637;BME280;63141;54.616;39.754;2023-06-24T03:57:10;99483.63;;;22.97;57.94
74637;BME280;63141;54.616;39.754;2023-06-24T04:00:14;99485.41;;;22.96;58.01
74637;BME280;63141;54.616;39.754;2023-06-24T04:03:23;99485.34;;;22.98;58.14
74637;BME280;63141;54.616;39.754;2023-06-24T04:06:27;99486.19;;;22.98;58.24
74637;BME280;63141;54.616;39.754;2023-06-24T04:09:29;99484.47;;;22.97;58.22
74637;BME280;63141;54.616;39.754;2023-06-24T04:12:30;99479.16;;;22.97;58.31
74637;BME280;63141;54.616;39.754;2023-06-24T04:15:32;99479.13;;;22.99;58.51
74637;BME280;63141;54.616;39.754;2023-06-24T04:18:33;99478.22;;;22.98;58.15
74637;BME280;63141;54.616;39.754;2023-06-24T04:21:35;99479.03;;;23.00;58.40
74637;BME280;63141;54.616;39.754;2023-06-24T04:24:36;99478.09;;;23.02;58.41
74637;BME280;63141;54.616;39.754;2023-06-24T04:27:40;99478.00;;;23.03;58.71
74637;BME280;63141;54.616;39.754;2023-06-24T04:30:43;99482.38;;;23.04;58.67
74637;BME280;63141;54.616;39.754;2023-06-24T04:33:47;99469.97;;;23.05;59.09
74637;BME280;63141;54.616;39.754;2023-06-24T04:36:48;99477.00;;;23.06;59.18
74637;BME280;63141;54.616;39.754;2023-06-24T04:39:50;99477.84;;;23.06;59.03
74637;BME280;63141;54.616;39.754;2023-06-24T04:42:51;99479.47;;;23.09;59.31
74637;BME280;63141;54.616;39.754;2023-06-24T04:45:53;99475.97;;;23.08;59.26
74637;BME280;63141;54.616;39.754;2023-06-24T04:48:55;99482.13;;;23.09;59.32
74637;BME280;63141;54.616;39.754;2023-06-24T04:52:00;99475.97;;;23.08;59.48
74637;BME280;63141;54.616;39.754;2023-06-24T04:55:01;99479.47;;;23.09;59.42
74637;BME280;63141;54.616;39.754;2023-06-24T04:58:03;99480.25;;;23.11;59.46
74637;BME280;63141;54.616;39.754;2023-06-24T05:01:07;99469.63;;;23.11;59.34
74637;BME280;63141;54.616;39.754;2023-06-24T05:04:14;99475.81;;;23.11;59.44
74637;BME280;63141;54.616;39.754;2023-06-24T05:07:15;99466.88;;;23.12;59.43
74637;BME280;63141;54.616;39.754;2023-06-24T05:10:17;99463.47;;;23.10;59.18
74637;BME280;63141;54.616;39.754;2023-06-24T05:13:27;99468.84;;;23.09;59.08
74637;BME280;63141;54.616;39.754;2023-06-24T05:16:29;99471.50;;;23.09;59.12
74637;BME280;63141;54.616;39.754;2023-06-24T05:19:30;99475.09;;;23.08;59.08
74637;BME280;63141;54.616;39.754;2023-06-24T05:22:32;99476.06;;;23.07;59.03
74637;BME280;63141;54.616;39.754;2023-06-24T05:25:38;99468.09;;;23.07;58.77
74637;BME280;63141;54.616;39.754;2023-06-24T05:28:40;99472.44;;;23.08;58.98
74637;BME280;63141;54.616;39.754;2023-06-24T05:31:45;99471.50;;;23.09;59.41
74637;BME280;63141;54.616;39.754;2023-06-24T05:34:53;99472.28;;;23.11;59.59
74637;BME280;63141;54.616;39.754;2023-06-24T05:37:54;99464.31;;;23.11;59.96
74637;BME280;63141;54.616;39.754;2023-06-24T05:40:59;99465.09;;;23.13;60.29
74637;BME280;63141;54.616;39.754;2023-06-24T05:44:07;99450.94;;;23.12;60.80
74637;BME280;63141;54.616;39.754;2023-06-24T05:47:11;99457.13;;;23.13;60.69
74637;BME280;63141;54.616;39.754;2023-06-24T05:50:12;99450.94;;;23.12;61.26
74637;BME280;63141;54.616;39.754;2023-06-24T05:53:13;99454.38;;;23.14;61.34
74637;BME280;63141;54.616;39.754;2023-06-24T05:56:15;99455.25;;;23.15;61.45
74637;BME280;63141;54.616;39.754;2023-06-24T05:59:16;99450.69;;;23.17;61.27
74637;BME280;63141;54.616;39.754;2023-06-24T06:02:20;99449.00;;;23.16;61.05
74637;BME280;63141;54.616;39.754;2023-06-24T06:05:26;99456.97;;;23.16;61.04
74637;BME280;63141;54.616;39.754;2023-06-24T06:08:28;99455.25;;;23.15;61.05
74637;BME280;63141;54.616;39.754;2023-06-24T06:14:33;99449.06;;;23.14;61.24
74637;BME280;63141;54.616;39.754;2023-06-24T06:17:34;99439.47;;;23.12;61.13
74637;BME280;63141;54.616;39.754;2023-06-24T06:20:41;99444.78;;;23.12;60.99
74637;BME280;63141;54.616;39.754;2023-06-24T06:23:42;99448.28;;;23.12;60.88
74637;BME280;63141;54.616;39.754;2023-06-24T06:26:44;99444.78;;;23.12;60.94
74637;BME280;63141;54.616;39.754;2023-06-24T06:29:45;99444.78;;;23.12;61.30
74637;BME280;63141;54.616;39.754;2023-06-24T06:32:47;99449.25;;;23.11;60.83
74637;BME280;63141;54.616;39.754;2023-06-24T06:35:48;99447.44;;;23.12;60.97
74637;BME280;63141;54.616;39.754;2023-06-24T06:38:49;99446.59;;;23.11;60.50
74637;BME280;63141;54.616;39.754;2023-06-24T06:41:53;99442.22;;;23.10;60.52
74637;BME280;63141;54.616;39.754;2023-06-24T06:44:58;99443.06;;;23.11;60.20
74637;BME280;63141;54.616;39.754;2023-06-24T06:48:11;99441.34;;;23.10;60.17
74637;BME280;63141;54.616;39.754;2023-06-24T06:51:12;99431.59;;;23.10;60.01
74637;BME280;63141;54.616;39.754;2023-06-24T06:54:14;99427.22;;;23.09;59.87
74637;BME280;63141;54.616;39.754;2023-06-24T06:57:15;99438.69;;;23.10;59.79
74637;BME280;63141;54.616;39.754;2023-06-24T07:00:17;99429.00;;;23.09;59.75
74637;BME280;63141;54.616;39.754;2023-06-24T07:03:23;99438.78;;;23.08;59.88
74637;BME280;63141;54.616;39.754;2023-06-24T07:06:29;99435.28;;;23.08;59.74
74637;BME280;63141;54.616;39.754;2023-06-24T07:09:30;99427.31;;;23.08;59.53
74637;BME280;63141;54.616;39.754;2023-06-24T07:12:43;99430.13;;;23.05;59.43
74637;BME280;63141;54.616;39.754;2023-06-24T07:15:44;99422.16;;;23.05;59.32
74637;BME280;63141;54.616;39.754;2023-06-24T07:18:49;99429.19;;;23.06;59.52
74637;BME280;63141;54.616;39.754;2023-06-24T07:22:09;99424.72;;;23.06;59.13
74637;BME280;63141;54.616;39.754;2023-06-24T07:25:13;99425.59;;;23.07;59.30
74637;BME280;63141;54.616;39.754;2023-06-24T07:28:14;99424.66;;;23.08;58.82
74637;BME280;63141;54.616;39.754;2023-06-24T07:31:21;99424.56;;;23.09;59.04
74637;BME280;63141;54.616;39.754;2023-06-24T07:34:26;99421.91;;;23.09;58.84
74637;BME280;63141;54.616;39.754;2023-06-24T07:37:30;99420.03;;;23.11;58.85
74637;BME280;63141;54.616;39.754;2023-06-24T07:40:40;99411.09;;;23.12;58.77
74637;BME280;63141;54.616;39.754;2023-06-24T07:43:47;99420.88;;;23.12;58.57
74637;BME280;63141;54.616;39.754;2023-06-24T07:46:52;99423.53;;;23.12;58.41
74637;BME280;63141;54.616;39.754;2023-06-24T07:50:01;99424.31;;;23.14;58.68
74637;BME280;63141;54.616;39.754;2023-06-24T07:53:07;99412.72;;;23.15;58.42
74637;BME280;63141;54.616;39.754;2023-06-24T07:56:08;99433.06;;;23.16;58.30
74637;BME280;63141;54.616;39.754;2023-06-24T07:59:09;99419.78;;;23.16;58.50
74637;BME280;63141;54.616;39.754;2023-06-24T08:02:16;99414.34;;;23.17;58.62
74637;BME280;63141;54.616;39.754;2023-06-24T08:05:23;99416.16;;;23.17;58.21
74637;BME280;63141;54.616;39.754;2023-06-24T08:08:24;99424.91;;;23.19;57.89
74637;BME280;63141;54.616;39.754;2023-06-24T08:11:31;99431.06;;;23.19;57.91
74637;BME280;63141;54.616;39.754;2023-06-24T08:14:33;99425.69;;;23.21;57.80
74637;BME280;63141;54.616;39.754;2023-06-24T08:17:42;99426.59;;;23.20;58.00
74637;BME280;63141;54.616;39.754;2023-06-24T08:20:47;99428.34;;;23.21;57.86
74637;BME280;63141;54.616;39.754;2023-06-24T08:23:54;99421.16;;;23.23;57.48
74637;BME280;63141;54.616;39.754;2023-06-24T08:26:55;99428.16;;;23.24;57.67
74637;BME280;63141;54.616;39.754;2023-06-24T08:30:09;99422.00;;;23.24;57.63
74637;BME280;63141;54.616;39.754;2023-06-24T08:33:20;99428.16;;;23.24;57.52
74637;BME280;63141;54.616;39.754;2023-06-24T08:36:28;99428.16;;;23.24;57.34
74637;BME280;63141;54.616;39.754;2023-06-24T08:39:30;99438.78;;;23.24;57.61
74637;BME280;63141;54.616;39.754;2023-06-24T08:42:43;99431.78;;;23.23;57.68
74637;BME280;63141;54.616;39.754;2023-06-24T08:45:47;99431.78;;;23.23;57.60
74637;BME280;63141;54.616;39.754;2023-06-24T08:49:23;99431.78;;;23.23;57.74
74637;BME280;63141;54.616;39.754;2023-06-24T08:52:32;99429.13;;;23.23;57.39
74637;BME280;63141;54.616;39.754;2023-06-24T08:55:49;99426.47;;;23.23;57.54
74637;BME280;63141;54.616;39.754;2023-06-24T08:58:54;99431.78;;;23.23;57.56
74637;BME280;63141;54.616;39.754;2023-06-24T09:01:58;99431.78;;;23.23;57.67
74637;BME280;63141;54.616;39.754;2023-06-24T09:05:10;99446.84;;;23.23;57.76
74637;BME280;63141;54.616;39.754;2023-06-24T09:08:24;99438.13;;;23.20;57.33
74637;BME280;63141;54.616;39.754;2023-06-24T09:11:34;99453.19;;;23.20;57.14
74637;BME280;63141;54.616;39.754;2023-06-24T09:14:35;99445.31;;;23.18;57.19
74637;BME280;63141;54.616;39.754;2023-06-24T09:17:58;99455.94;;;23.18;56.99
74637;BME280;63141;54.616;39.754;2023-06-24T09:21:01;99456.97;;;23.16;56.90
74637;BME280;63141;54.616;39.754;2023-06-24T09:24:10;99456.25;;;23.12;56.63
74637;BME280;63141;54.616;39.754;2023-06-24T09:27:20;99463.38;;;23.12;56.46
74637;BME280;63141;54.616;39.754;2023-06-24T09:30:25;99469.63;;;23.11;56.41
74637;BME280;63141;54.616;39.754;2023-06-24T09:33:27;99479.41;;;23.10;56.32
74637;BME280;63141;54.616;39.754;2023-06-24T09:36:34;99474.09;;;23.10;56.05
74637;BME280;63141;54.616;39.754;2023-06-24T09:39:37;99481.19;;;23.10;55.98
74637;BME280;63141;54.616;39.754;2023-06-24T09:42:55;99467.06;;;23.09;55.90
74637;BME280;63141;54.616;39.754;2023-06-24T09:46:04;99489.16;;;23.10;55.86
74637;BME280;63141;54.616;39.754;2023-06-24T09:49:14;99492.75;;;23.09;55.72
74637;BME280;63141;54.616;39.754;2023-06-24T09:52:18;99494.47;;;23.10;55.63
74637;BME280;63141;54.616;39.754;2023-06-24T09:55:36;99498.06;;;23.09;55.70
74637;BME280;63141;54.616;39.754;2023-06-24T09:58:53;99506.03;;;23.09;55.43
74637;BME280;63141;54.616;39.754;2023-06-24T10:02:02;99503.38;;;23.09;55.67
74637;BME280;63141;54.616;39.754;2023-06-24T10:05:04;99499.97;;;23.07;55.72
74637;BME280;63141;54.616;39.754;2023-06-24T10:08:08;99505.28;;;23.07;55.68
74637;BME280;63141;54.616;39.754;2023-06-24T10:11:13;99508.88;;;23.06;55.52
74637;BME280;63141;54.616;39.754;2023-06-24T10:14:20;99502.69;;;23.05;55.36
74637;BME280;63141;54.616;39.754;2023-06-24T10:17:30;99501.84;;;23.05;55.59
74637;BME280;63141;54.616;39.754;2023-06-24T10:20:44;99509.88;;;23.03;55.54
74637;BME280;63141;54.616;39.754;2023-06-24T10:27:15;99512.63;;;23.02;55.25
74637;BME280;63141;54.616;39.754;2023-06-24T10:30:18;99513.63;;;22.99;55.44
74637;BME280;63141;54.616;39.754;2023-06-24T10:33:31;99521.59;;;22.99;55.11
74637;BME280;63141;54.616;39.754;2023-06-24T10:36:36;99525.13;;;22.99;55.28
74637;BME280;63141;54.616;39.754;2023-06-24T10:43:00;99517.16;;;22.99;54.85
74637;BME280;63141;54.616;39.754;2023-06-24T10:46:14;99518.94;;;22.99;54.83
74637;BME280;63141;54.616;39.754;2023-06-24T10:49:19;99528.69;;;22.98;54.86
74637;BME280;63141;54.616;39.754;2023-06-24T10:52:40;99522.53;;;22.98;54.92
74637;BME280;63141;54.616;39.754;2023-06-24T10:55:43;99529.63;;;22.97;54.60
74637;BME280;63141;54.616;39.754;2023-06-24T10:59:03;99524.41;;;22.96;54.49
74637;BME280;63141;54.616;39.754;2023-06-24T11:02:15;99530.56;;;22.96;54.77
74637;BME280;63141;54.616;39.754;2023-06-24T11:05:36;99539.50;;;22.95;54.42
74637;BME280;63141;54.616;39.754;2023-06-24T11:09:02;99536.84;;;22.95;54.57
74637;BME280;63141;54.616;39.754;2023-06-24T11:12:03;99544.81;;;22.95;54.77
74637;BME280;63141;54.616;39.754;2023-06-24T11:15:20;99536.84;;;22.95;54.44
74637;BME280;63141;54.616;39.754;2023-06-24T11:18:21;99538.47;;;22.98;54.24
74637;BME280;63141;54.616;39.754;2023-06-24T11:21:31;99539.16;;;23.02;54.46
74637;BME280;63141;54.616;39.754;2023-06-24T11:24:33;99547.84;;;23.05;54.14
74637;BME280;63141;54.616;39.754;2023-06-24T11:27:38;99546.03;;;23.06;54.61
74637;BME280;63141;54.616;39.754;2023-06-24T11:30:42;99550.44;;;23.07;54.41
74637;BME280;63141;54.616;39.754;2023-06-24T11:33:56;99550.56;;;23.04;54.27
74637;BME280;63141;54.616;39.754;2023-06-24T11:37:31;99555.09;;;23.02;54.63
74637;BME280;63141;54.616;39.754;2023-06-24T11:40:35;99564.13;;;22.97;54.64
74637;BME280;63141;54.616;39.754;2023-06-24T11:43:49;99566.03;;;22.95;54.82
74637;BME280;63141;54.616;39.754;2023-06-24T11:47:03;99580.41;;;22.91;54.81
74637;BME280;63141;54.616;39.754;2023-06-24T11:50:06;99577.91;;;22.88;54.67
74637;BME280;63141;54.616;39.754;2023-06-24T11:53:28;99580.72;;;22.85;54.82
74637;BME280;63141;54.616;39.754;2023-06-24T11:56:39;99593.22;;;22.83;55.00
74637;BME280;63141;54.616;39.754;2023-06-24T11:59:42;99598.53;;;22.83;55.21
74637;BME280;63141;54.616;39.754;2023-06-24T12:03:00;99586.19;;;22.82;54.99
74637;BME280;63141;54.616;39.754;2023-06-24T12:06:10;99590.56;;;22.83;54.91
74637;BME280;63141;54.616;39.754;2023-06-24T12:09:14;99598.38;;;22.86;54.68
74637;BME280;63141;54.616;39.754;2023-06-24T12:12:17;99603.59;;;22.88;54.91
74637;BME280;63141;54.616;39.754;2023-06-24T12:15:33;99608.59;;;22.94;54.69
74637;BME280;63141;54.616;39.754;2023-06-24T12:18:40;99600.91;;;23.07;54.39
74637;BME280;63141;54.616;39.754;2023-06-24T12:21:44;99602.72;;;23.22;54.35
74637;BME280;63141;54.616;39.754;2023-06-24T12:24:48;99602.41;;;23.28;53.98
74637;BME280;63141;54.616;39.754;2023-06-24T12:27:55;99595.53;;;23.24;54.15
74637;BME280;63141;54.616;39.754;2023-06-24T12:31:02;99587.88;;;23.18;54.18
74637;BME280;63141;54.616;39.754;2023-06-24T12:34:12;99589.94;;;23.13;54.18
74637;BME280;63141;54.616;39.754;2023-06-24T12:37:20;99598.25;;;23.07;54.26
74637;BME280;63141;54.616;39.754;2023-06-24T12:40:24;99585.09;;;23.04;54.58
74637;BME280;63141;54.616;39.754;2023-06-24T12:43:32;99595.97;;;22.99;54.56
74637;BME280;63141;54.616;39.754;2023-06-24T12:46:45;99594.31;;;22.96;54.36
74637;BME280;63141;54.616;39.754;2023-06-24T12:49:49;99591.72;;;22.95;54.42
74637;BME280;63141;54.616;39.754;2023-06-24T12:52:59;99595.31;;;22.94;54.84
74637;BME280;63141;54.616;39.754;2023-06-24T12:56:07;99593.53;;;22.94;54.72
74637;BME280;63141;54.616;39.754;2023-06-24T12:59:14;99593.53;;;22.94;54.82
74637;BME280;63141;54.616;39.754;2023-06-24T13:02:15;99591.81;;;22.93;54.83
74637;BME280;63141;54.616;39.754;2023-06-24T13:05:40;99593.53;;;22.94;54.91
74637;BME280;63141;54.616;39.754;2023-06-24T13:08:56;99590.88;;;22.94;55.11
74637;BME280;63141;54.616;39.754;2023-06-24T13:12:03;99591.72;;;22.95;54.97
74637;BME280;63141;54.616;39.754;2023-06-24T13:15:10;99583.75;;;22.95;55.49
74637;BME280;63141;54.616;39.754;2023-06-24T13:18:15;99590.00;;;22.94;55.26
74637;BME280;63141;54.616;39.754;2023-06-24T13:21:28;99581.19;;;22.93;55.82
74637;BME280;63141;54.616;39.754;2023-06-24T13:24:35;99594.22;;;22.98;56.08
74637;BME280;63141;54.616;39.754;2023-06-24T13:27:46;99604.66;;;23.03;56.32
74637;BME280;63141;54.616;39.754;2023-06-24T13:31:02;99597.28;;;23.08;55.84
74637;BME280;63141;54.616;39.754;2023-06-24T13:34:21;99612.22;;;23.10;55.82
74637;BME280;63141;54.616;39.754;2023-06-24T13:37:38;99609.31;;;23.15;55.87
74637;BME280;63141;54.616;39.754;2023-06-24T13:40:45;99620.72;;;23.17;55.58
74637;BME280;63141;54.616;39.754;2023-06-24T13:43:47;99615.16;;;23.21;55.92
74637;BME280;63141;54.616;39.754;2023-06-24T13:47:13;99617.75;;;23.23;56.10
74637;BME280;63141;54.616;39.754;2023-06-24T13:50:32;99620.31;;;23.25;55.96
74637;BME280;63141;54.616;39.754;2023-06-24T13:53:55;99617.56;;;23.26;55.82
74637;BME280;63141;54.616;39.754;2023-06-24T13:57:02;99620.16;;;23.28;55.76
74637;BME280;63141;54.616;39.754;2023-06-24T14:00:09;99622.56;;;23.32;55.89
74637;BME280;63141;54.616;39.754;2023-06-24T14:03:17;99618.03;;;23.34;56.04
74637;BME280;63141;54.616;39.754;2023-06-24T14:06:27;99625.84;;;23.37;55.89
74637;BME280;63141;54.616;39.754;2023-06-24T14:09:37;99626.44;;;23.42;55.67
74637;BME280;63141;54.616;39.754;2023-06-24T14:13:00;99632.53;;;23.45;55.04
74637;BME280;63141;54.616;39.754;2023-06-24T14:16:17;99644.19;;;23.42;55.29
74637;BME280;63141;54.616;39.754;2023-06-24T14:19:22;99639.72;;;23.42;55.20
74637;BME280;63141;54.616;39.754;2023-06-24T14:22:50;99644.72;;;23.49;55.13
74637;BME280;63141;54.616;39.754;2023-06-24T14:26:18;99646.28;;;23.53;54.79
74637;BME280;63141;54.616;39.754;2023-06-24T14:29:32;99644.41;;;23.55;54.68
74637;BME280;63141;54.616;39.754;2023-06-24T14:32:45;99651.34;;;23.57;54.85
74637;BME280;63141;54.616;39.754;2023-06-24T14:36:01;99659.41;;;23.56;54.89
74637;BME280;63141;54.616;39.754;2023-06-24T14:39:29;99659.41;;;23.56;54.67
74637;BME280;63141;54.616;39.754;2023-06-24T14:42:38;99651.44;;;23.56;54.68
74637;BME280;63141;54.616;39.754;2023-06-24T14:45:45;99666.34;;;23.58;54.73
74637;BME280;63141;54.616;39.754;2023-06-24T14:48:46;99667.06;;;23.62;54.63
74637;BME280;63141;54.616;39.754;2023-06-24T14:51:59;99664.16;;;23.67;54.13
74637;BME280;63141;54.616;39.754;2023-06-24T14:55:07;99666.56;;;23.71;53.93
74637;BME280;63141;54.616;39.754;2023-06-24T14:58:14;99667.34;;;23.73;54.06
74637;BME280;63141;54.616;39.754;2023-06-24T15:01:36;99667.28;;;23.75;53.88
74637;BME280;63141;54.616;39.754;2023-06-24T15:04:43;99672.50;;;23.76;54.13
74637;BME280;63141;54.616;39.754;2023-06-24T15:07:56;99684.06;;;23.75;53.69
74637;BME280;63141;54.616;39.754;2023-06-24T15:11:05;99688.28;;;23.79;53.67
74637;BME280;63141;54.616;39.754;2023-06-24T15:14:19;99703.31;;;23.80;53.69
74637;BME280;63141;54.616;39.754;2023-06-24T15:17:26;99703.47;;;23.77;53.62
74637;BME280;63141;54.616;39.754;2023-06-24T15:20:40;99704.44;;;23.76;53.29
74637;BME280;63141;54.616;39.754;2023-06-24T15:23:41;99715.00;;;23.78;53.28
74637;BME280;63141;54.616;39.754;2023-06-24T15:27:04;99707.75;;;23.80;53.69
74637;BME280;63141;54.616;39.754;2023-06-24T15:30:15;99718.25;;;23.83;53.58
74637;BME280;63141;54.616;39.754;2023-06-24T15:33:31;99717.41;;;23.82;53.39
74637;BME280;63141;54.616;39.754;2023-06-24T15:36:38;99722.47;;;23.87;52.84
74637;BME280;63141;54.616;39.754;2023-06-24T15:39:47;99724.09;;;23.90;52.93
74637;BME280;63141;54.616;39.754;2023-06-24T15:43:00;99721.28;;;23.93;52.85
74637;BME280;63141;54.616;39.754;2023-06-24T15:46:29;99723.94;;;23.93;52.88
74637;BME280;63141;54.616;39.754;2023-06-24T15:49:39;99727.38;;;23.95;52.71
74637;BME280;63141;54.616;39.754;2023-06-24T15:52:54;99723.75;;;23.96;52.25
74637;BME280;63141;54.616;39.754;2023-06-24T15:56:23;99729.06;;;23.96;52.32
74637;BME280;63141;54.616;39.754;2023-06-24T15:59:33;99736.06;;;23.98;52.05
74637;BME280;63141;54.616;39.754;2023-06-24T16:03:03;99731.59;;;23.99;52.00
74637;BME280;63141;54.616;39.754;2023-06-24T16:06:42;99742.22;;;23.99;52.06
74637;BME280;63141;54.616;39.754;2023-06-24T16:10:02;99744.09;;;23.97;51.59
74637;BME280;63141;54.616;39.754;2023-06-24T16:13:15;99749.44;;;23.97;51.54
74637;BME280;63141;54.616;39.754;2023-06-24T16:16:17;99757.41;;;23.97;51.40
74637;BME280;63141;54.616;39.754;2023-06-24T16:19:33;99761.09;;;23.94;51.20
74637;BME280;63141;54.616;39.754;2023-06-24T16:22:40;99762.13;;;23.92;51.94
74637;BME280;63141;54.616;39.754;2023-06-24T16:25:48;99766.66;;;23.90;51.29
74637;BME280;63141;54.616;39.754;2023-06-24T16:29:13;99765.09;;;23.86;51.52
74637;BME280;63141;54.616;39.754;2023-06-24T16:32:17;99782.09;;;23.83;51.39
74637;BME280;63141;54.616;39.754;2023-06-24T16:35:30;99780.19;;;23.85;51.14
74637;BME280;63141;54.616;39.754;2023-06-24T16:38:37;99793.56;;;23.83;51.29
74637;BME280;63141;54.616;39.754;2023-06-24T16:41:39;99787.41;;;23.83;51.56